createdAt,value
2018-09-16T00:00:30.599Z,14.30
2018-09-16T00:01:30.587Z,14.10
2018-09-16T00:02:30.572Z,14.90
2018-09-16T00:03:30.559Z,15.40
2018-09-16T00:04:30.541Z,13.80
2018-09-16T00:05:30.524Z,14.30
2018-09-16T00:06:30.508Z,13.70
2018-09-16T00:07:30.495Z,13.50
2018-09-16T00:08:30.479Z,15.80
2018-09-16T00:09:30.466Z,14.70
2018-09-16T00:10:30.453Z,13.50
2018-09-16T00:11:30.437Z,17.00
2018-09-16T00:12:30.422Z,14.20
2018-09-16T00:13:30.410Z,13.50
2018-09-16T00:14:30.465Z,14.00
2018-09-16T00:15:30.380Z,14.00
2018-09-16T00:16:30.364Z,15.00
2018-09-16T00:17:30.348Z,14.60
2018-09-16T00:18:30.335Z,13.60
2018-09-16T00:19:30.317Z,14.00
2018-09-16T00:20:30.305Z,14.10
2018-09-16T00:21:30.288Z,14.80
2018-09-16T00:22:30.277Z,15.10
2018-09-16T00:23:30.262Z,14.90
2018-09-16T00:24:30.243Z,13.70
2018-09-16T00:25:30.232Z,13.90
2018-09-16T00:26:30.219Z,13.80
2018-09-16T00:27:30.202Z,14.50
2018-09-16T00:28:30.186Z,14.30
2018-09-16T00:29:30.170Z,13.20
2018-09-16T00:30:30.153Z,14.60
2018-09-16T00:31:30.140Z,15.70
2018-09-16T00:32:30.124Z,14.40
2018-09-16T00:33:30.116Z,14.00
2018-09-16T00:34:30.097Z,14.30
2018-09-16T00:35:30.079Z,14.30
2018-09-16T00:36:30.073Z,14.10
2018-09-16T00:37:30.048Z,13.90
2018-09-16T00:38:30.031Z,14.00
2018-09-16T00:39:30.022Z,14.70
2018-09-16T00:40:30.007Z,14.60
2018-09-16T00:41:29.992Z,14.30
2018-09-16T00:42:29.972Z,15.00
2018-09-16T00:43:29.958Z,14.20
2018-09-16T00:44:29.951Z,14.10
2018-09-16T00:45:29.928Z,13.70
2018-09-16T00:46:29.914Z,14.60
2018-09-16T00:47:29.898Z,13.90
2018-09-16T00:48:29.882Z,15.10
2018-09-16T00:49:29.871Z,15.10
2018-09-16T00:50:29.854Z,14.00
2018-09-16T00:51:29.837Z,13.60
2018-09-16T00:52:29.823Z,13.40
2018-09-16T00:53:29.813Z,14.40
2018-09-16T00:54:29.792Z,14.50
2018-09-16T00:55:29.780Z,15.10
2018-09-16T00:56:29.763Z,13.50
2018-09-16T00:57:29.755Z,15.10
2018-09-16T00:58:29.734Z,14.30
2018-09-16T00:59:29.718Z,14.50
2018-09-16T01:00:29.706Z,15.20
2018-09-16T01:01:29.688Z,14.80
2018-09-16T01:02:29.668Z,14.00
2018-09-16T01:03:29.656Z,14.40
2018-09-16T01:04:29.640Z,15.20
2018-09-16T01:05:29.625Z,14.80
2018-09-16T01:06:29.609Z,15.80
2018-09-16T01:07:29.596Z,15.30
2018-09-16T01:08:29.580Z,15.10
2018-09-16T01:09:29.566Z,15.60
2018-09-16T01:10:29.553Z,15.70
2018-09-16T01:11:29.536Z,16.10
2018-09-16T01:12:29.519Z,16.10
2018-09-16T01:13:29.508Z,15.50
2018-09-16T01:14:29.491Z,15.70
2018-09-16T01:15:29.474Z,16.30
2018-09-16T01:16:29.459Z,15.30
2018-09-16T01:17:29.444Z,16.60
2018-09-16T01:18:29.428Z,16.00
2018-09-16T01:19:29.412Z,15.50
2018-09-16T01:20:29.397Z,15.70
2018-09-16T01:21:29.383Z,19.70
2018-09-16T01:22:29.365Z,17.00
2018-09-16T01:23:29.349Z,16.60
2018-09-16T01:24:29.335Z,16.50
2018-09-16T01:25:29.323Z,16.70
2018-09-16T01:26:29.305Z,17.20
2018-09-16T01:27:29.294Z,18.10
2018-09-16T01:28:29.285Z,17.20
2018-09-16T01:29:29.263Z,17.40
2018-09-16T01:30:29.249Z,17.00
2018-09-16T01:31:29.229Z,16.40
2018-09-16T01:32:29.217Z,16.00
2018-09-16T01:33:29.200Z,16.10
2018-09-16T01:34:29.183Z,17.00
2018-09-16T01:35:29.169Z,16.10
2018-09-16T01:36:29.153Z,16.70
2018-09-16T01:37:29.138Z,17.10
2018-09-16T01:38:29.120Z,17.00
2018-09-16T01:39:29.113Z,16.60
2018-09-16T01:40:29.101Z,17.00
2018-09-16T01:41:29.076Z,16.40
2018-09-16T01:42:29.063Z,16.80
2018-09-16T01:43:29.044Z,17.30
2018-09-16T01:44:29.029Z,19.00
2018-09-16T01:45:29.014Z,17.80
2018-09-16T01:46:29.005Z,18.10
2018-09-16T01:47:28.992Z,18.20
2018-09-16T01:48:28.971Z,18.80
2018-09-16T01:49:28.952Z,17.70
2018-09-16T01:50:28.942Z,17.70
2018-09-16T01:51:28.921Z,19.00
2018-09-16T01:52:28.905Z,17.60
2018-09-16T01:53:28.896Z,18.60
2018-09-16T01:54:28.887Z,17.70
2018-09-16T01:55:28.860Z,16.90
2018-09-16T01:56:28.843Z,17.80
2018-09-16T01:57:28.829Z,17.50
2018-09-16T01:58:28.838Z,19.10
2018-09-16T01:59:28.797Z,18.90
2018-09-16T02:00:28.782Z,19.30
2018-09-16T02:01:28.766Z,19.40
2018-09-16T02:02:28.755Z,20.20
2018-09-16T02:03:28.734Z,20.50
2018-09-16T02:04:28.721Z,20.20
2018-09-16T02:05:28.716Z,20.10
2018-09-16T02:06:28.687Z,20.20
2018-09-16T02:07:28.672Z,20.60
2018-09-16T02:08:28.661Z,20.60
2018-09-16T02:09:28.642Z,20.40
2018-09-16T02:10:28.623Z,20.70
2018-09-16T02:11:28.612Z,19.90
2018-09-16T02:12:28.597Z,20.40
2018-09-16T02:13:28.581Z,21.00
2018-09-16T02:14:28.559Z,19.70
2018-09-16T02:15:28.544Z,20.50
2018-09-16T02:16:28.530Z,20.20
2018-09-16T02:17:28.515Z,19.20
2018-09-16T02:18:28.501Z,20.60
2018-09-16T02:19:28.491Z,19.40
2018-09-16T02:20:28.465Z,19.50
2018-09-16T02:21:28.453Z,19.10
2018-09-16T02:22:28.434Z,19.90
2018-09-16T02:23:28.417Z,19.40
2018-09-16T02:24:28.404Z,19.40
2018-09-16T02:25:28.388Z,20.70
2018-09-16T02:26:28.374Z,20.50
2018-09-16T02:27:28.355Z,18.70
2018-09-16T02:28:28.341Z,18.70
2018-09-16T02:29:28.329Z,19.40
2018-09-16T02:30:28.312Z,20.00
2018-09-16T02:31:28.298Z,19.90
2018-09-16T02:32:28.276Z,20.00
2018-09-16T02:33:28.260Z,19.30
2018-09-16T02:34:28.245Z,19.90
2018-09-16T02:35:28.229Z,19.00
2018-09-16T02:36:28.213Z,18.90
2018-09-16T02:37:28.199Z,19.30
2018-09-16T02:38:28.188Z,19.90
2018-09-16T02:39:28.167Z,19.90
2018-09-16T02:40:28.149Z,20.20
2018-09-16T02:41:28.140Z,19.00
2018-09-16T02:42:28.118Z,18.80
2018-09-16T02:43:28.169Z,19.60
2018-09-16T02:44:28.087Z,19.50
2018-09-16T02:45:28.072Z,19.50
2018-09-16T02:46:28.055Z,19.70
2018-09-16T02:47:28.041Z,20.50
2018-09-16T02:48:28.027Z,18.70
2018-09-16T02:49:28.007Z,19.30
2018-09-16T02:50:27.997Z,19.30
2018-09-16T02:51:27.977Z,19.70
2018-09-16T02:52:27.961Z,18.80
2018-09-16T02:53:27.943Z,19.90
2018-09-16T02:54:27.927Z,19.10
2018-09-16T02:55:27.911Z,18.20
2018-09-16T02:56:27.895Z,20.10
2018-09-16T02:57:27.881Z,19.30
2018-09-16T02:58:27.869Z,19.80
2018-09-16T02:59:27.863Z,20.40
2018-09-16T03:00:27.906Z,19.70
2018-09-16T03:01:27.817Z,19.60
2018-09-16T03:02:27.801Z,19.60
2018-09-16T03:03:27.783Z,19.50
2018-09-16T03:04:27.770Z,20.70
2018-09-16T03:05:27.754Z,19.30
2018-09-16T03:06:27.733Z,20.50
2018-09-16T03:07:27.721Z,19.80
2018-09-16T03:08:27.711Z,20.20
2018-09-16T03:09:27.690Z,21.10
2018-09-16T03:10:27.673Z,19.40
2018-09-16T03:11:27.740Z,20.70
2018-09-16T03:12:27.641Z,19.70
2018-09-16T03:13:27.628Z,19.30
2018-09-16T03:14:27.614Z,19.80
2018-09-16T03:15:27.592Z,20.60
2018-09-16T03:16:27.575Z,20.70
2018-09-16T03:17:27.559Z,19.50
2018-09-16T03:18:27.546Z,20.60
2018-09-16T03:19:27.527Z,19.90
2018-09-16T03:20:27.513Z,19.70
2018-09-16T03:21:27.502Z,18.60
2018-09-16T03:22:27.481Z,19.20
2018-09-16T03:23:27.466Z,19.90
2018-09-16T03:24:27.455Z,20.90
2018-09-16T03:25:27.437Z,19.50
2018-09-16T03:26:27.421Z,20.30
2018-09-16T03:27:27.402Z,19.40
2018-09-16T03:28:27.385Z,19.30
2018-09-16T03:29:27.377Z,19.10
2018-09-16T03:30:27.355Z,19.70
2018-09-16T03:31:27.337Z,19.30
2018-09-16T03:32:27.321Z,19.90
2018-09-16T03:33:27.307Z,20.20
2018-09-16T03:34:27.290Z,19.40
2018-09-16T03:35:27.279Z,19.80
2018-09-16T03:36:27.258Z,20.20
2018-09-16T03:37:27.241Z,19.50
2018-09-16T03:38:27.223Z,20.10
2018-09-16T03:39:27.209Z,19.70
2018-09-16T03:40:27.193Z,20.10
2018-09-16T03:41:27.190Z,20.20
2018-09-16T03:42:27.160Z,20.60
2018-09-16T03:43:27.144Z,20.60
2018-09-16T03:44:27.129Z,20.70
2018-09-16T03:45:27.115Z,20.10
2018-09-16T03:46:27.099Z,19.90
2018-09-16T03:47:27.078Z,19.30
2018-09-16T03:48:27.067Z,21.40
2018-09-16T03:49:27.056Z,19.60
2018-09-16T03:50:27.030Z,19.00
2018-09-16T03:51:27.019Z,19.30
2018-09-16T03:52:26.998Z,19.30
2018-09-16T03:53:26.985Z,18.80
2018-09-16T03:54:26.967Z,19.80
2018-09-16T03:55:26.949Z,19.90
2018-09-16T03:56:26.936Z,19.10
2018-09-16T03:57:26.926Z,19.20
2018-09-16T03:58:26.901Z,19.70
2018-09-16T03:59:26.889Z,20.40
2018-09-16T04:00:26.872Z,21.20
2018-09-16T04:01:26.852Z,20.60
2018-09-16T04:02:26.835Z,21.20
2018-09-16T04:03:26.820Z,20.20
2018-09-16T04:04:26.807Z,20.30
2018-09-16T04:05:26.798Z,20.30
2018-09-16T04:06:26.772Z,21.00
2018-09-16T04:07:26.757Z,20.20
2018-09-16T04:08:26.745Z,21.60
2018-09-16T04:09:26.730Z,21.20
2018-09-16T04:10:26.713Z,22.60
2018-09-16T04:11:26.694Z,22.10
2018-09-16T04:12:26.678Z,21.80
2018-09-16T04:13:26.660Z,21.20
2018-09-16T04:14:26.642Z,21.50
2018-09-16T04:15:26.625Z,22.30
2018-09-16T04:16:26.611Z,24.60
2018-09-16T04:17:26.595Z,23.70
2018-09-16T04:18:26.581Z,26.00
2018-09-16T04:19:26.565Z,24.90
2018-09-16T04:20:26.545Z,23.60
2018-09-16T04:21:26.530Z,24.50
2018-09-16T04:22:26.517Z,24.40
2018-09-16T04:23:26.495Z,23.30
2018-09-16T04:24:26.478Z,24.40
2018-09-16T04:25:26.466Z,24.00
2018-09-16T04:26:26.449Z,24.30
2018-09-16T04:27:26.430Z,23.40
2018-09-16T04:28:26.414Z,24.20
2018-09-16T04:29:26.404Z,24.30
2018-09-16T04:30:26.380Z,24.70
2018-09-16T04:31:26.367Z,23.50
2018-09-16T04:32:26.348Z,24.30
2018-09-16T04:33:26.394Z,23.50
2018-09-16T04:34:26.317Z,23.90
2018-09-16T04:35:26.300Z,24.10
2018-09-16T04:36:26.293Z,23.30
2018-09-16T04:37:26.266Z,24.50
2018-09-16T04:38:26.248Z,23.20
2018-09-16T04:39:26.236Z,23.50
2018-09-16T04:40:26.230Z,23.80
2018-09-16T04:41:26.203Z,23.50
2018-09-16T04:42:26.188Z,21.70
2018-09-16T04:43:26.168Z,23.70
2018-09-16T04:44:26.151Z,22.80
2018-09-16T04:45:26.138Z,21.60
2018-09-16T04:46:26.119Z,22.10
2018-09-16T04:47:26.106Z,23.30
2018-09-16T04:48:26.090Z,23.20
2018-09-16T04:49:26.071Z,23.30
2018-09-16T04:50:26.058Z,22.30
2018-09-16T04:51:26.036Z,22.10
2018-09-16T04:52:26.018Z,22.90
2018-09-16T04:53:26.003Z,23.60
2018-09-16T04:54:25.986Z,23.00
2018-09-16T04:55:25.968Z,22.40
2018-09-16T04:56:25.952Z,24.00
2018-09-16T04:57:25.960Z,23.00
2018-09-16T04:58:25.918Z,22.30
2018-09-16T04:59:25.902Z,22.90
2018-09-16T05:00:25.889Z,22.40
2018-09-16T05:01:25.870Z,21.80
2018-09-16T05:02:25.853Z,21.80
2018-09-16T05:03:25.837Z,23.40
2018-09-16T05:04:25.821Z,22.60
2018-09-16T05:05:25.806Z,23.90
2018-09-16T05:06:25.793Z,22.90
2018-09-16T05:07:25.772Z,22.50
2018-09-16T05:08:25.754Z,23.10
2018-09-16T05:09:25.739Z,23.40
2018-09-16T05:10:25.771Z,24.00
2018-09-16T05:11:25.706Z,23.70
2018-09-16T05:12:25.687Z,22.90
2018-09-16T05:13:25.671Z,23.90
2018-09-16T05:14:25.656Z,23.90
2018-09-16T05:15:25.641Z,25.00
2018-09-16T05:16:25.622Z,24.40
2018-09-16T05:17:25.607Z,24.70
2018-09-16T05:18:25.590Z,24.20
2018-09-16T05:19:25.576Z,24.10
2018-09-16T05:20:25.557Z,24.30
2018-09-16T05:21:25.538Z,24.70
2018-09-16T05:22:25.577Z,24.80
2018-09-16T05:23:25.504Z,23.80
2018-09-16T05:24:25.500Z,23.60
2018-09-16T05:25:25.472Z,24.80
2018-09-16T05:26:25.458Z,23.90
2018-09-16T05:27:25.440Z,24.20
2018-09-16T05:28:25.421Z,25.40
2018-09-16T05:29:25.407Z,25.70
2018-09-16T05:30:25.386Z,24.50
2018-09-16T05:31:25.438Z,26.20
2018-09-16T05:32:25.354Z,25.30
2018-09-16T05:33:25.338Z,26.50
2018-09-16T05:34:25.325Z,27.50
2018-09-16T05:35:25.303Z,26.70
2018-09-16T05:36:25.284Z,26.00
2018-09-16T05:37:25.272Z,25.70
2018-09-16T05:38:25.250Z,25.50
2018-09-16T05:39:25.245Z,26.30
2018-09-16T05:40:25.216Z,25.60
2018-09-16T05:41:25.202Z,26.00
2018-09-16T05:42:25.183Z,28.10
2018-09-16T05:43:25.273Z,26.40
2018-09-16T05:44:25.167Z,26.30
2018-09-16T05:45:25.133Z,25.20
2018-09-16T05:46:25.117Z,24.10
2018-09-16T05:47:25.099Z,25.50
2018-09-16T05:48:25.085Z,25.10
2018-09-16T05:49:25.072Z,23.90
2018-09-16T05:50:25.048Z,23.40
2018-09-16T05:51:25.033Z,24.10
2018-09-16T05:52:25.015Z,23.50
2018-09-16T05:53:25.185Z,24.00
2018-09-16T05:54:24.986Z,24.30
2018-09-16T05:55:24.972Z,23.40
2018-09-16T05:56:24.958Z,23.60
2018-09-16T05:57:24.938Z,24.30
2018-09-16T05:58:24.916Z,24.60
2018-09-16T05:59:24.921Z,23.20
2018-09-16T06:00:24.884Z,24.20
2018-09-16T06:01:24.865Z,23.40
2018-09-16T06:02:24.847Z,22.70
2018-09-16T06:03:24.832Z,24.80
2018-09-16T06:04:24.814Z,22.60
2018-09-16T06:05:24.800Z,22.40
2018-09-16T06:06:24.782Z,22.90
2018-09-16T06:07:24.765Z,22.20
2018-09-16T06:08:24.753Z,22.00
2018-09-16T06:09:24.733Z,22.50
2018-09-16T06:10:24.716Z,24.70
2018-09-16T06:11:24.704Z,22.50
2018-09-16T06:12:24.684Z,22.70
2018-09-16T06:13:24.667Z,23.50
2018-09-16T06:14:24.650Z,22.40
2018-09-16T06:15:24.634Z,22.40
2018-09-16T06:16:24.618Z,21.70
2018-09-16T06:17:24.604Z,22.40
2018-09-16T06:18:24.588Z,21.90
2018-09-16T06:19:24.569Z,22.80
2018-09-16T06:20:24.554Z,22.70
2018-09-16T06:21:24.535Z,22.50
2018-09-16T06:22:24.520Z,22.60
2018-09-16T06:23:24.506Z,22.30
2018-09-16T06:24:24.496Z,22.30
2018-09-16T06:25:24.473Z,22.10
2018-09-16T06:26:24.459Z,22.90
2018-09-16T06:27:24.445Z,20.90
2018-09-16T06:28:24.426Z,21.00
2018-09-16T06:29:24.412Z,20.70
2018-09-16T06:30:24.393Z,20.60
2018-09-16T06:31:24.378Z,21.00
2018-09-16T06:32:24.360Z,20.70
2018-09-16T06:33:24.348Z,21.70
2018-09-16T06:34:24.327Z,20.90
2018-09-16T06:35:24.312Z,20.60
2018-09-16T06:36:24.302Z,20.60
2018-09-16T06:37:24.296Z,20.30
2018-09-16T06:38:24.280Z,21.00
2018-09-16T06:39:24.248Z,20.50
2018-09-16T06:40:24.233Z,21.10
2018-09-16T06:41:24.293Z,19.90
2018-09-16T06:42:24.201Z,20.20
2018-09-16T06:43:24.189Z,20.70
2018-09-16T06:44:24.169Z,20.20
2018-09-16T06:45:24.154Z,20.10
2018-09-16T06:46:24.138Z,19.40
2018-09-16T06:47:24.122Z,19.90
2018-09-16T06:48:24.112Z,18.10
2018-09-16T06:49:24.102Z,19.00
2018-09-16T06:50:24.077Z,17.10
2018-09-16T06:51:24.065Z,17.40
2018-09-16T06:52:24.050Z,16.70
2018-09-16T06:53:24.037Z,15.60
2018-09-16T06:54:24.027Z,14.70
2018-09-16T06:55:24.018Z,14.90
2018-09-16T06:56:24.012Z,14.70
2018-09-16T06:57:23.990Z,14.20
2018-09-16T06:58:23.979Z,13.70
2018-09-16T06:59:23.965Z,12.80
2018-09-16T07:00:23.955Z,12.90
2018-09-16T07:01:23.947Z,13.40
2018-09-16T07:02:23.934Z,13.00
2018-09-16T07:03:23.923Z,12.60
2018-09-16T07:04:23.910Z,12.40
2018-09-16T07:05:23.899Z,11.60
2018-09-16T07:06:23.893Z,12.40
2018-09-16T07:07:23.881Z,11.60
2018-09-16T07:08:23.945Z,12.30
2018-09-16T07:09:23.872Z,11.80
2018-09-16T07:10:23.855Z,11.10
2018-09-16T07:11:23.849Z,12.00
2018-09-16T07:12:23.839Z,12.00
2018-09-16T07:13:23.835Z,11.80
2018-09-16T07:14:23.841Z,11.00
2018-09-16T07:15:23.825Z,11.40
2018-09-16T07:16:23.819Z,11.60
2018-09-16T07:17:23.809Z,14.90
2018-09-16T07:18:23.796Z,12.70
2018-09-16T07:19:23.794Z,11.90
2018-09-16T07:20:23.785Z,11.20
2018-09-16T07:21:23.790Z,11.30
2018-09-16T07:22:23.774Z,11.30
2018-09-16T07:23:23.767Z,10.90
2018-09-16T07:24:23.763Z,10.90
2018-09-16T07:25:23.757Z,11.50
2018-09-16T07:26:23.752Z,10.70
2018-09-16T07:27:23.848Z,10.30
2018-09-16T07:28:23.748Z,10.50
2018-09-16T07:29:23.740Z,11.00
2018-09-16T07:30:23.835Z,10.30
2018-09-16T07:31:23.732Z,9.60
2018-09-16T07:32:23.731Z,10.30
2018-09-16T07:33:23.733Z,9.70
2018-09-16T07:34:23.728Z,9.20
2018-09-16T07:35:23.722Z,9.50
2018-09-16T07:36:23.723Z,8.90
2018-09-16T07:37:23.719Z,9.20
2018-09-16T07:38:23.716Z,8.40
2018-09-16T07:39:23.719Z,9.00
2018-09-16T07:40:23.717Z,8.70
2018-09-16T07:41:23.715Z,9.50
2018-09-16T07:42:23.719Z,9.30
2018-09-16T07:43:23.717Z,9.30
2018-09-16T07:44:23.715Z,8.50
2018-09-16T07:45:23.716Z,8.50
2018-09-16T07:46:23.714Z,7.90
2018-09-16T07:47:23.760Z,8.60
2018-09-16T07:48:23.719Z,8.50
2018-09-16T07:49:23.716Z,8.20
2018-09-16T07:50:23.716Z,8.20
2018-09-16T07:51:23.719Z,8.00
2018-09-16T07:52:23.718Z,8.30
2018-09-16T07:53:23.779Z,8.90
2018-09-16T07:54:23.719Z,8.50
2018-09-16T07:55:23.728Z,8.30
2018-09-16T07:56:23.721Z,8.90
2018-09-16T07:57:23.721Z,14.40
2018-09-16T07:58:23.725Z,10.40
2018-09-16T07:59:23.730Z,8.60
2018-09-16T08:00:23.727Z,9.60
2018-09-16T08:01:23.729Z,8.10
2018-09-16T08:02:23.727Z,9.10
2018-09-16T08:03:23.731Z,7.80
2018-09-16T08:04:23.736Z,8.20
2018-09-16T08:05:23.747Z,7.70
2018-09-16T08:06:23.755Z,8.00
2018-09-16T08:07:23.741Z,7.90
2018-09-16T08:08:23.744Z,7.40
2018-09-16T08:09:23.746Z,7.90
2018-09-16T08:10:23.745Z,9.00
2018-09-16T08:11:23.749Z,7.20
2018-09-16T08:12:23.751Z,7.30
2018-09-16T08:13:23.755Z,8.10
2018-09-16T08:14:23.760Z,7.50
2018-09-16T08:15:23.759Z,7.40
2018-09-16T08:16:23.763Z,7.30
2018-09-16T08:17:23.769Z,7.20
2018-09-16T08:18:23.770Z,7.50
2018-09-16T08:19:23.771Z,8.80
2018-09-16T08:20:23.781Z,7.10
2018-09-16T08:21:23.882Z,8.80
2018-09-16T08:22:23.781Z,8.00
2018-09-16T08:23:23.788Z,7.10
2018-09-16T08:24:23.786Z,6.80
2018-09-16T08:25:23.795Z,7.40
2018-09-16T08:26:23.792Z,10.40
2018-09-16T08:27:23.806Z,7.50
2018-09-16T08:28:23.810Z,7.10
2018-09-16T08:29:23.804Z,7.00
2018-09-16T08:30:23.804Z,6.70
2018-09-16T08:31:23.809Z,7.00
2018-09-16T08:32:23.806Z,6.60
2018-09-16T08:33:23.808Z,7.10
2018-09-16T08:34:23.815Z,7.10
2018-09-16T08:35:23.815Z,7.30
2018-09-16T08:36:23.825Z,7.50
2018-09-16T08:37:23.830Z,7.60
2018-09-16T08:38:23.823Z,7.30
2018-09-16T08:39:23.824Z,7.10
2018-09-16T08:40:23.830Z,6.30
2018-09-16T08:41:23.839Z,6.90
2018-09-16T08:42:23.830Z,7.40
2018-09-16T08:43:23.835Z,6.80
2018-09-16T08:44:23.838Z,7.60
2018-09-16T08:45:23.842Z,6.70
2018-09-16T08:46:23.839Z,7.70
2018-09-16T08:47:23.840Z,6.70
2018-09-16T08:48:23.839Z,9.30
2018-09-16T08:49:23.839Z,6.70
2018-09-16T08:50:23.844Z,6.90
2018-09-16T08:51:23.839Z,7.20
2018-09-16T08:52:23.847Z,6.70
2018-09-16T08:53:23.837Z,6.60
2018-09-16T08:54:23.835Z,10.30
2018-09-16T08:55:23.834Z,8.30
2018-09-16T08:56:23.832Z,6.80
2018-09-16T08:57:23.829Z,6.60
2018-09-16T08:58:23.933Z,7.80
2018-09-16T08:59:23.821Z,7.60
2018-09-16T09:00:23.822Z,8.60
2018-09-16T09:01:23.818Z,7.30
2018-09-16T09:02:23.815Z,5.70
2018-09-16T09:03:23.815Z,6.00
2018-09-16T09:04:23.867Z,8.10
2018-09-16T09:05:23.810Z,13.10
2018-09-16T09:06:23.807Z,19.90
2018-09-16T09:07:23.808Z,11.80
2018-09-16T09:08:23.802Z,11.40
2018-09-16T09:09:23.806Z,9.40
2018-09-16T09:10:23.797Z,14.50
2018-09-16T09:11:23.797Z,17.50
2018-09-16T09:12:23.797Z,9.00
2018-09-16T09:13:23.804Z,11.10
2018-09-16T09:14:23.855Z,6.90
2018-09-16T09:15:23.789Z,11.80
2018-09-16T09:16:23.784Z,9.00
2018-09-16T09:17:23.783Z,11.30
2018-09-16T09:18:23.783Z,7.90
2018-09-16T09:19:23.790Z,7.00
2018-09-16T09:20:23.776Z,9.00
2018-09-16T09:21:23.785Z,7.50
2018-09-16T09:22:23.771Z,7.30
2018-09-16T09:23:23.803Z,10.10
2018-09-16T09:24:23.767Z,7.70
2018-09-16T09:25:23.769Z,7.00
2018-09-16T09:26:23.764Z,9.90
2018-09-16T09:27:23.761Z,6.80
2018-09-16T09:28:23.761Z,6.00
2018-09-16T09:29:23.757Z,4.60
2018-09-16T09:30:23.752Z,5.80
2018-09-16T09:31:23.760Z,6.70
2018-09-16T09:32:23.751Z,4.40
2018-09-16T09:33:23.750Z,5.00
2018-09-16T09:34:23.744Z,6.30
2018-09-16T09:35:23.742Z,5.40
2018-09-16T09:36:23.743Z,3.90
2018-09-16T09:37:23.739Z,5.10
2018-09-16T09:38:23.733Z,4.60
2018-09-16T09:39:23.734Z,4.60
2018-09-16T09:40:23.730Z,4.30
2018-09-16T09:41:23.728Z,3.60
2018-09-16T09:42:23.725Z,4.80
2018-09-16T09:43:23.720Z,5.10
2018-09-16T09:44:23.718Z,4.60
2018-09-16T09:45:23.710Z,3.50
2018-09-16T09:46:23.709Z,5.00
2018-09-16T09:47:23.703Z,4.70
2018-09-16T09:48:23.704Z,6.50
2018-09-16T09:49:23.700Z,6.10
2018-09-16T09:50:23.693Z,5.00
2018-09-16T09:51:23.692Z,4.20
2018-09-16T09:52:23.698Z,5.80
2018-09-16T09:53:23.739Z,6.10
2018-09-16T09:54:23.691Z,5.00
2018-09-16T09:55:23.677Z,5.30
2018-09-16T09:56:23.671Z,4.00
2018-09-16T09:57:23.668Z,4.80
2018-09-16T09:58:23.663Z,3.50
2018-09-16T09:59:23.735Z,4.40
2018-09-16T10:00:23.653Z,5.00
2018-09-16T10:01:23.662Z,3.20
2018-09-16T10:02:23.648Z,3.70
2018-09-16T10:03:23.643Z,4.20
2018-09-16T10:04:23.634Z,5.00
2018-09-16T10:05:23.632Z,4.90
2018-09-16T10:06:23.624Z,4.10
2018-09-16T10:07:23.626Z,4.00
2018-09-16T10:08:23.619Z,4.30
2018-09-16T10:09:23.618Z,4.60
2018-09-16T10:10:23.611Z,4.80
2018-09-16T10:11:23.605Z,4.40
2018-09-16T10:12:23.597Z,4.30
2018-09-16T10:13:23.602Z,5.20
2018-09-16T10:14:23.638Z,4.80
2018-09-16T10:15:23.592Z,4.30
2018-09-16T10:16:23.587Z,6.40
2018-09-16T10:17:23.581Z,5.60
2018-09-16T10:18:23.568Z,5.00
2018-09-16T10:19:23.563Z,4.60
2018-09-16T10:20:23.556Z,5.10
2018-09-16T10:21:23.553Z,3.60
2018-09-16T10:22:23.548Z,3.70
2018-09-16T10:23:23.538Z,4.80
2018-09-16T10:24:23.592Z,3.70
2018-09-16T10:25:23.528Z,4.90
2018-09-16T10:26:23.527Z,3.60
2018-09-16T10:27:23.517Z,4.90
2018-09-16T10:28:23.522Z,5.00
2018-09-16T10:29:23.506Z,4.80
2018-09-16T10:30:23.503Z,3.80
2018-09-16T10:31:23.504Z,4.60
2018-09-16T10:32:23.493Z,3.90
2018-09-16T10:33:23.489Z,6.00
2018-09-16T10:34:23.477Z,6.80
2018-09-16T10:35:23.472Z,6.10
2018-09-16T10:36:23.468Z,3.70
2018-09-16T10:37:23.460Z,8.00
2018-09-16T10:38:23.477Z,5.10
2018-09-16T10:39:23.449Z,4.40
2018-09-16T10:40:23.444Z,4.20
2018-09-16T10:41:23.444Z,3.40
2018-09-16T10:42:23.440Z,4.70
2018-09-16T10:43:23.427Z,6.60
2018-09-16T10:44:23.420Z,6.00
2018-09-16T10:45:23.415Z,4.10
2018-09-16T10:46:23.407Z,4.60
2018-09-16T10:47:23.522Z,4.10
2018-09-16T10:48:23.402Z,3.60
2018-09-16T10:49:23.393Z,5.10
2018-09-16T10:50:23.387Z,4.40
2018-09-16T10:51:23.380Z,6.90
2018-09-16T10:52:23.379Z,4.60
2018-09-16T10:53:23.373Z,3.60
2018-09-16T10:54:23.363Z,5.40
2018-09-16T10:55:23.362Z,5.10
2018-09-16T10:56:23.359Z,4.90
2018-09-16T10:57:23.395Z,3.70
2018-09-16T10:58:23.335Z,4.20
2018-09-16T10:59:23.329Z,16.70
2018-09-16T11:00:23.333Z,5.90
2018-09-16T11:01:23.322Z,4.60
2018-09-16T11:02:23.315Z,15.20
2018-09-16T11:03:23.312Z,4.00
2018-09-16T11:04:23.301Z,5.10
2018-09-16T11:05:23.294Z,3.00
2018-09-16T11:06:23.284Z,4.60
2018-09-16T11:07:23.285Z,4.70
2018-09-16T11:08:23.270Z,4.10
2018-09-16T11:09:23.266Z,3.80
2018-09-16T11:10:23.266Z,5.60
2018-09-16T11:11:23.252Z,3.90
2018-09-16T11:12:23.249Z,4.20
2018-09-16T11:13:23.239Z,5.30
2018-09-16T11:14:23.233Z,6.90
2018-09-16T11:15:23.235Z,5.10
2018-09-16T11:16:23.222Z,5.30
2018-09-16T11:17:23.215Z,5.70
2018-09-16T11:18:23.221Z,5.00
2018-09-16T11:19:23.203Z,3.50
2018-09-16T11:20:23.194Z,3.60
2018-09-16T11:21:23.204Z,4.40
2018-09-16T11:22:23.178Z,7.00
2018-09-16T11:23:23.169Z,11.70
2018-09-16T11:24:23.168Z,6.70
2018-09-16T11:25:23.161Z,3.80
2018-09-16T11:26:23.153Z,5.10
2018-09-16T11:27:23.147Z,4.10
2018-09-16T11:28:23.141Z,6.00
2018-09-16T11:29:23.133Z,3.70
2018-09-16T11:30:23.127Z,6.70
2018-09-16T11:31:23.123Z,6.50
2018-09-16T11:32:23.122Z,10.40
2018-09-16T11:33:23.106Z,6.10
2018-09-16T11:34:23.098Z,5.30
2018-09-16T11:35:23.131Z,6.70
2018-09-16T11:36:23.089Z,10.40
2018-09-16T11:37:23.090Z,6.60
2018-09-16T11:38:23.072Z,9.90
2018-09-16T11:39:23.066Z,4.40
2018-09-16T11:40:23.071Z,7.50
2018-09-16T11:41:23.060Z,7.90
2018-09-16T11:42:23.049Z,5.80
2018-09-16T11:43:23.041Z,4.60
2018-09-16T11:44:23.041Z,7.80
2018-09-16T11:45:23.029Z,4.80
2018-09-16T11:46:23.021Z,7.00
2018-09-16T11:47:23.015Z,5.40
2018-09-16T11:48:23.018Z,4.90
2018-09-16T11:49:23.006Z,4.40
2018-09-16T11:50:22.999Z,5.50
2018-09-16T11:51:22.991Z,4.90
2018-09-16T11:52:22.982Z,4.80
2018-09-16T11:53:22.980Z,5.80
2018-09-16T11:54:22.970Z,5.80
2018-09-16T11:55:22.965Z,4.70
2018-09-16T11:56:22.958Z,4.20
2018-09-16T11:57:22.957Z,4.60
2018-09-16T11:58:22.950Z,3.30
2018-09-16T11:59:22.936Z,3.80
2018-09-16T12:00:22.939Z,4.80
2018-09-16T12:01:22.936Z,4.90
2018-09-16T12:02:22.918Z,3.40
2018-09-16T12:03:22.914Z,3.50
2018-09-16T12:04:22.904Z,4.20
2018-09-16T12:05:22.976Z,2.90
2018-09-16T12:06:22.891Z,3.80
2018-09-16T12:07:22.893Z,4.40
2018-09-16T12:08:22.877Z,5.00
2018-09-16T12:09:22.873Z,6.50
2018-09-16T12:10:22.871Z,4.10
2018-09-16T12:11:22.855Z,3.10
2018-09-16T12:12:22.848Z,2.70
2018-09-16T12:13:22.846Z,3.30
2018-09-16T12:14:22.835Z,3.20
2018-09-16T12:15:22.830Z,5.00
2018-09-16T12:16:22.826Z,3.50
2018-09-16T12:17:22.817Z,4.20
2018-09-16T12:18:22.816Z,3.60
2018-09-16T12:19:22.803Z,4.30
2018-09-16T12:20:22.799Z,4.90
2018-09-16T12:21:22.788Z,4.40
2018-09-16T12:22:22.789Z,3.50
2018-09-16T12:23:22.790Z,5.40
2018-09-16T12:24:22.774Z,3.20
2018-09-16T12:25:22.761Z,6.80
2018-09-16T12:26:22.752Z,3.90
2018-09-16T12:27:22.747Z,3.10
2018-09-16T12:28:22.739Z,4.60
2018-09-16T12:29:22.731Z,3.80
2018-09-16T12:30:22.724Z,4.60
2018-09-16T12:31:22.717Z,3.70
2018-09-16T12:32:22.711Z,5.00
2018-09-16T12:33:22.707Z,2.70
2018-09-16T12:34:22.697Z,3.60
2018-09-16T12:35:22.699Z,5.10
2018-09-16T12:36:22.684Z,4.30
2018-09-16T12:37:22.731Z,3.90
2018-09-16T12:38:22.680Z,3.80
2018-09-16T12:39:22.671Z,3.40
2018-09-16T12:40:22.660Z,4.90
2018-09-16T12:41:22.648Z,3.30
2018-09-16T12:42:22.652Z,3.00
2018-09-16T12:43:22.636Z,3.80
2018-09-16T12:44:22.631Z,3.30
2018-09-16T12:45:22.737Z,5.90
2018-09-16T12:46:22.616Z,2.90
2018-09-16T12:47:22.614Z,4.10
2018-09-16T12:48:22.609Z,3.80
2018-09-16T12:49:22.596Z,3.80
2018-09-16T12:50:22.590Z,4.50
2018-09-16T12:51:22.588Z,4.40
2018-09-16T12:52:22.581Z,3.20
2018-09-16T12:53:22.564Z,2.90
2018-09-16T12:54:22.555Z,4.80
2018-09-16T12:55:22.551Z,4.80
2018-09-16T12:56:22.543Z,3.00
2018-09-16T12:57:22.542Z,3.50
2018-09-16T12:58:22.533Z,4.90
2018-09-16T12:59:22.526Z,2.50
2018-09-16T13:00:22.518Z,5.60
2018-09-16T13:01:22.513Z,5.40
2018-09-16T13:02:22.504Z,3.50